This is the latest recevied weather packets stored in our database for station/object SP3TOM-10. If no packets are shown the sender has not sent any weather packets the latest 10 day(s).
| Time | Temp. | Humidity | Pressure | Rain* | Wind** | Luminosity | Snow |
|---|---|---|---|---|---|---|---|
| 1788549547 | 21.67° C | 68% | 994.7 hPa | - | - | - | - |
| 1788548647 | 21.67° C | 68% | 994.9 hPa | - | - | - | - |
| 1788547747 | 21.67° C | 68% | 995 hPa | - | - | - | - |
| 1788546847 | 22.22° C | 67% | 995.2 hPa | - | - | - | - |
| 1788542346 | 22.78° C | 65% | 993.9 hPa | - | - | - | - |
| 1788540545 | 23.33° C | 65% | 993.6 hPa | - | - | - | - |
| 1788535144 | 24.44° C | 55% | 992.7 hPa | - | - | - | - |
| 1788532443 | 25° C | 55% | 993.5 hPa | - | - | - | - |
| 1788529743 | 25° C | 55% | 994.1 hPa | - | - | - | - |
| 1788525242 | 24.44° C | 55% | 995.7 hPa | - | - | - | - |
| 1788524342 | 24.44° C | 56% | 995.9 hPa | - | - | - | - |
| 1788521641 | 23.33° C | 56% | 997.2 hPa | - | - | - | - |
| 1788520741 | 23.33° C | 56% | 997.6 hPa | - | - | - | - |
| 1788518941 | 22.78° C | 58% | 998.1 hPa | - | - | - | - |
| 1788518040 | 22.78° C | 58% | 998.4 hPa | - | - | - | - |
| 1788514440 | 21.67° C | 63% | 999.6 hPa | - | - | - | - |
| 1788510839 | 21.11° C | 63% | 1000.4 hPa | - | - | - | - |
| 1788509939 | 21.11° C | 64% | 1000.6 hPa | - | - | - | - |
| 1788509039 | 21.11° C | 62% | 1000.7 hPa | - | - | - | - |
| 1788508139 | 20.56° C | 61% | 1000.6 hPa | - | - | - | - |
| 1788507238 | 20.56° C | 62% | 1000.9 hPa | - | - | - | - |
| 1788506338 | 20.56° C | 63% | 1000.8 hPa | - | - | - | - |
| 1788505438 | 20° C | 63% | 1000.8 hPa | - | - | - | - |
| 1788503638 | 20° C | 63% | 1001 hPa | - | - | - | - |
| 1788502738 | 20° C | 64% | 1001.4 hPa | - | - | - | - |
* Rain since midnight (hover to see other rain measurements)
** Current wind speed in m/s (hover to see current wind gust speed)